sensor_id;sensor_type;location;lat;lon;timestamp;P1;durP1;ratioP1;P2;durP2;ratioP2
55760;SDS011;41679;51.440;-2.012;2022-08-04T00:00:50;14.57;;;1.48;;
55760;SDS011;41679;51.440;-2.012;2022-08-04T00:08:45;16.95;;;1.98;;
55760;SDS011;41679;51.440;-2.012;2022-08-04T00:11:15;16.05;;;1.55;;
55760;SDS011;41679;51.440;-2.012;2022-08-04T00:13:48;20.08;;;3.42;;
55760;SDS011;41679;51.440;-2.012;2022-08-04T00:16:19;17.10;;;2.28;;
55760;SDS011;41679;51.440;-2.012;2022-08-04T00:18:49;17.95;;;2.65;;
55760;SDS011;41679;51.440;-2.012;2022-08-04T00:21:20;18.00;;;2.00;;
55760;SDS011;41679;51.440;-2.012;2022-08-04T00:23:47;18.77;;;1.52;;
55760;SDS011;41679;51.440;-2.012;2022-08-04T00:26:15;19.48;;;2.42;;
55760;SDS011;41679;51.440;-2.012;2022-08-04T00:28:40;17.08;;;1.75;;
55760;SDS011;41679;51.440;-2.012;2022-08-04T00:31:08;14.32;;;1.63;;
55760;SDS011;41679;51.440;-2.012;2022-08-04T00:33:34;18.95;;;1.95;;
55760;SDS011;41679;51.440;-2.012;2022-08-04T00:36:04;20.00;;;2.58;;
55760;SDS011;41679;51.440;-2.012;2022-08-04T00:38:30;16.45;;;1.85;;
55760;SDS011;41679;51.440;-2.012;2022-08-04T00:41:00;18.77;;;2.92;;
55760;SDS011;41679;51.440;-2.012;2022-08-04T00:43:31;16.55;;;2.08;;
55760;SDS011;41679;51.440;-2.012;2022-08-04T01:00:43;18.25;;;1.85;;
55760;SDS011;41679;51.440;-2.012;2022-08-04T01:03:21;19.08;;;2.78;;
55760;SDS011;41679;51.440;-2.012;2022-08-04T01:08:57;15.38;;;1.67;;
55760;SDS011;41679;51.440;-2.012;2022-08-04T01:14:55;21.27;;;2.10;;
55760;SDS011;41679;51.440;-2.012;2022-08-04T01:28:02;20.25;;;2.75;;
55760;SDS011;41679;51.440;-2.012;2022-08-04T01:30:44;17.83;;;2.95;;
55760;SDS011;41679;51.440;-2.012;2022-08-04T01:33:13;21.08;;;2.80;;
55760;SDS011;41679;51.440;-2.012;2022-08-04T01:38:20;15.47;;;1.77;;
55760;SDS011;41679;51.440;-2.012;2022-08-04T01:40:52;20.13;;;1.92;;
55760;SDS011;41679;51.440;-2.012;2022-08-04T01:43:20;17.73;;;1.88;;
55760;SDS011;41679;51.440;-2.012;2022-08-04T01:45:54;15.07;;;2.00;;
55760;SDS011;41679;51.440;-2.012;2022-08-04T01:48:25;18.65;;;2.15;;
55760;SDS011;41679;51.440;-2.012;2022-08-04T01:50:52;19.35;;;2.33;;
55760;SDS011;41679;51.440;-2.012;2022-08-04T01:53:18;22.75;;;2.05;;
55760;SDS011;41679;51.440;-2.012;2022-08-04T01:55:50;21.50;;;2.30;;
55760;SDS011;41679;51.440;-2.012;2022-08-04T01:58:17;21.58;;;2.40;;
55760;SDS011;41679;51.440;-2.012;2022-08-04T02:00:45;19.25;;;2.35;;
55760;SDS011;41679;51.440;-2.012;2022-08-04T02:03:23;17.95;;;1.95;;
55760;SDS011;41679;51.440;-2.012;2022-08-04T02:05:49;21.25;;;2.30;;
55760;SDS011;41679;51.440;-2.012;2022-08-04T02:08:33;16.42;;;1.88;;
55760;SDS011;41679;51.440;-2.012;2022-08-04T02:11:22;16.38;;;1.98;;
55760;SDS011;41679;51.440;-2.012;2022-08-04T02:14:03;15.43;;;2.13;;
55760;SDS011;41679;51.440;-2.012;2022-08-04T02:16:48;16.85;;;1.95;;
55760;SDS011;41679;51.440;-2.012;2022-08-04T02:22:06;18.27;;;2.08;;
55760;SDS011;41679;51.440;-2.012;2022-08-04T02:24:39;18.02;;;2.00;;
55760;SDS011;41679;51.440;-2.012;2022-08-04T02:27:11;21.20;;;2.10;;
55760;SDS011;41679;51.440;-2.012;2022-08-04T02:32:09;19.15;;;2.50;;
55760;SDS011;41679;51.440;-2.012;2022-08-04T02:37:13;25.30;;;2.85;;
55760;SDS011;41679;51.440;-2.012;2022-08-04T02:39:41;18.33;;;2.38;;
55760;SDS011;41679;51.440;-2.012;2022-08-04T02:42:08;19.42;;;2.22;;
55760;SDS011;41679;51.440;-2.012;2022-08-04T02:44:37;36.20;;;2.95;;
55760;SDS011;41679;51.440;-2.012;2022-08-04T02:47:03;17.80;;;2.10;;
55760;SDS011;41679;51.440;-2.012;2022-08-04T02:49:30;18.23;;;1.98;;
55760;SDS011;41679;51.440;-2.012;2022-08-04T02:52:00;19.73;;;2.58;;
55760;SDS011;41679;51.440;-2.012;2022-08-04T02:54:27;18.15;;;2.45;;
55760;SDS011;41679;51.440;-2.012;2022-08-04T02:56:57;18.88;;;2.38;;
55760;SDS011;41679;51.440;-2.012;2022-08-04T02:59:25;18.20;;;2.88;;
55760;SDS011;41679;51.440;-2.012;2022-08-04T03:01:53;19.00;;;2.30;;
55760;SDS011;41679;51.440;-2.012;2022-08-04T03:04:25;18.58;;;2.65;;
55760;SDS011;41679;51.440;-2.012;2022-08-04T03:16:20;20.38;;;2.25;;
55760;SDS011;41679;51.440;-2.012;2022-08-04T03:27:09;15.23;;;1.90;;
55760;SDS011;41679;51.440;-2.012;2022-08-04T03:35:24;17.15;;;2.63;;
55760;SDS011;41679;51.440;-2.012;2022-08-04T03:38:12;17.48;;;2.40;;
55760;SDS011;41679;51.440;-2.012;2022-08-04T04:00:30;24.55;;;3.40;;
55760;SDS011;41679;51.440;-2.012;2022-08-04T04:06:39;18.55;;;2.90;;
55760;SDS011;41679;51.440;-2.012;2022-08-04T04:09:06;18.27;;;2.92;;
55760;SDS011;41679;51.440;-2.012;2022-08-04T04:17:27;22.00;;;3.13;;
55760;SDS011;41679;51.440;-2.012;2022-08-04T04:27:59;23.10;;;3.40;;
55760;SDS011;41679;51.440;-2.012;2022-08-04T04:39:58;17.00;;;3.00;;
55760;SDS011;41679;51.440;-2.012;2022-08-04T04:42:06;19.38;;;3.42;;
55760;SDS011;41679;51.440;-2.012;2022-08-04T04:45:04;19.10;;;2.95;;
55760;SDS011;41679;51.440;-2.012;2022-08-04T04:47:53;22.48;;;2.95;;
55760;SDS011;41679;51.440;-2.012;2022-08-04T04:53:46;17.63;;;2.78;;
55760;SDS011;41679;51.440;-2.012;2022-08-04T04:58:54;22.40;;;3.17;;
55760;SDS011;41679;51.440;-2.012;2022-08-04T05:09:31;18.63;;;2.45;;
55760;SDS011;41679;51.440;-2.012;2022-08-04T05:14:49;21.95;;;3.25;;
55760;SDS011;41679;51.440;-2.012;2022-08-04T05:17:19;18.42;;;3.15;;
55760;SDS011;41679;51.440;-2.012;2022-08-04T05:22:44;17.50;;;3.25;;
55760;SDS011;41679;51.440;-2.012;2022-08-04T05:25:18;19.85;;;2.63;;
55760;SDS011;41679;51.440;-2.012;2022-08-04T05:27:55;20.02;;;2.90;;
55760;SDS011;41679;51.440;-2.012;2022-08-04T05:30:24;19.35;;;2.90;;
55760;SDS011;41679;51.440;-2.012;2022-08-04T05:33:02;15.50;;;2.10;;
55760;SDS011;41679;51.440;-2.012;2022-08-04T05:35:44;20.73;;;2.78;;
55760;SDS011;41679;51.440;-2.012;2022-08-04T05:38:13;19.77;;;2.95;;
55760;SDS011;41679;51.440;-2.012;2022-08-04T05:40:42;19.23;;;2.70;;
55760;SDS011;41679;51.440;-2.012;2022-08-04T05:43:08;19.55;;;2.72;;
55760;SDS011;41679;51.440;-2.012;2022-08-04T05:45:34;23.02;;;3.38;;
55760;SDS011;41679;51.440;-2.012;2022-08-04T05:48:03;15.43;;;2.28;;
55760;SDS011;41679;51.440;-2.012;2022-08-04T05:50:31;17.15;;;2.25;;
55760;SDS011;41679;51.440;-2.012;2022-08-04T05:52:57;17.45;;;2.30;;
55760;SDS011;41679;51.440;-2.012;2022-08-04T05:55:25;19.67;;;3.90;;
55760;SDS011;41679;51.440;-2.012;2022-08-04T05:57:51;19.95;;;3.05;;
55760;SDS011;41679;51.440;-2.012;2022-08-04T06:00:18;16.45;;;2.20;;
55760;SDS011;41679;51.440;-2.012;2022-08-04T06:02:46;17.92;;;2.80;;
55760;SDS011;41679;51.440;-2.012;2022-08-04T06:05:14;20.10;;;2.50;;
55760;SDS011;41679;51.440;-2.012;2022-08-04T06:07:42;20.02;;;2.50;;
55760;SDS011;41679;51.440;-2.012;2022-08-04T06:10:08;18.30;;;2.30;;
55760;SDS011;41679;51.440;-2.012;2022-08-04T06:12:43;17.15;;;2.78;;
55760;SDS011;41679;51.440;-2.012;2022-08-04T06:15:13;20.13;;;2.60;;
55760;SDS011;41679;51.440;-2.012;2022-08-04T06:17:50;19.58;;;3.78;;
55760;SDS011;41679;51.440;-2.012;2022-08-04T06:20:19;15.52;;;2.17;;
55760;SDS011;41679;51.440;-2.012;2022-08-04T06:22:55;16.00;;;2.08;;
55760;SDS011;41679;51.440;-2.012;2022-08-04T06:25:40;20.50;;;2.20;;
55760;SDS011;41679;51.440;-2.012;2022-08-04T06:28:14;20.88;;;2.65;;
55760;SDS011;41679;51.440;-2.012;2022-08-04T06:30:41;16.35;;;2.10;;
55760;SDS011;41679;51.440;-2.012;2022-08-04T06:33:12;20.88;;;2.17;;
55760;SDS011;41679;51.440;-2.012;2022-08-04T06:35:54;17.13;;;2.45;;
55760;SDS011;41679;51.440;-2.012;2022-08-04T06:38:22;20.10;;;1.98;;
55760;SDS011;41679;51.440;-2.012;2022-08-04T06:40:49;18.25;;;3.28;;
55760;SDS011;41679;51.440;-2.012;2022-08-04T06:43:15;21.80;;;3.15;;
55760;SDS011;41679;51.440;-2.012;2022-08-04T06:45:42;24.08;;;3.42;;
55760;SDS011;41679;51.440;-2.012;2022-08-04T06:48:10;18.15;;;2.35;;
55760;SDS011;41679;51.440;-2.012;2022-08-04T06:50:37;16.15;;;1.92;;
55760;SDS011;41679;51.440;-2.012;2022-08-04T06:53:04;15.65;;;1.60;;
55760;SDS011;41679;51.440;-2.012;2022-08-04T06:55:30;18.75;;;2.45;;
55760;SDS011;41679;51.440;-2.012;2022-08-04T06:57:57;20.40;;;2.45;;
55760;SDS011;41679;51.440;-2.012;2022-08-04T07:00:23;16.95;;;1.83;;
55760;SDS011;41679;51.440;-2.012;2022-08-04T07:02:50;15.77;;;1.98;;
55760;SDS011;41679;51.440;-2.012;2022-08-04T07:05:17;19.75;;;1.90;;
55760;SDS011;41679;51.440;-2.012;2022-08-04T07:07:44;14.77;;;1.45;;
55760;SDS011;41679;51.440;-2.012;2022-08-04T07:10:10;18.08;;;2.00;;
55760;SDS011;41679;51.440;-2.012;2022-08-04T07:12:36;17.02;;;1.77;;
55760;SDS011;41679;51.440;-2.012;2022-08-04T07:15:03;17.67;;;1.95;;
55760;SDS011;41679;51.440;-2.012;2022-08-04T07:17:30;20.75;;;2.50;;
55760;SDS011;41679;51.440;-2.012;2022-08-04T07:19:56;17.23;;;2.05;;
55760;SDS011;41679;51.440;-2.012;2022-08-04T07:22:23;20.17;;;1.80;;
55760;SDS011;41679;51.440;-2.012;2022-08-04T07:24:54;18.58;;;2.70;;
55760;SDS011;41679;51.440;-2.012;2022-08-04T07:27:21;13.30;;;1.70;;
55760;SDS011;41679;51.440;-2.012;2022-08-04T07:29:46;13.18;;;1.48;;
55760;SDS011;41679;51.440;-2.012;2022-08-04T07:32:12;18.00;;;1.60;;
55760;SDS011;41679;51.440;-2.012;2022-08-04T07:34:41;15.90;;;1.70;;
55760;SDS011;41679;51.440;-2.012;2022-08-04T07:37:07;15.30;;;1.52;;
55760;SDS011;41679;51.440;-2.012;2022-08-04T07:39:33;16.75;;;2.13;;
55760;SDS011;41679;51.440;-2.012;2022-08-04T07:42:01;11.85;;;1.27;;
55760;SDS011;41679;51.440;-2.012;2022-08-04T07:44:32;18.27;;;1.92;;
55760;SDS011;41679;51.440;-2.012;2022-08-04T07:47:00;14.00;;;1.75;;
55760;SDS011;41679;51.440;-2.012;2022-08-04T07:49:26;14.32;;;1.52;;
55760;SDS011;41679;51.440;-2.012;2022-08-04T07:51:53;16.60;;;1.83;;
55760;SDS011;41679;51.440;-2.012;2022-08-04T07:54:20;20.45;;;2.75;;
55760;SDS011;41679;51.440;-2.012;2022-08-04T07:56:46;15.85;;;2.05;;
55760;SDS011;41679;51.440;-2.012;2022-08-04T07:59:16;17.20;;;1.70;;
55760;SDS011;41679;51.440;-2.012;2022-08-04T08:01:42;15.93;;;1.75;;
55760;SDS011;41679;51.440;-2.012;2022-08-04T08:04:08;13.82;;;1.73;;
55760;SDS011;41679;51.440;-2.012;2022-08-04T08:06:36;18.67;;;2.38;;
55760;SDS011;41679;51.440;-2.012;2022-08-04T08:09:08;15.00;;;2.15;;
55760;SDS011;41679;51.440;-2.012;2022-08-04T08:11:45;12.52;;;1.50;;
55760;SDS011;41679;51.440;-2.012;2022-08-04T08:14:13;13.43;;;1.60;;
55760;SDS011;41679;51.440;-2.012;2022-08-04T08:16:40;19.75;;;2.70;;
55760;SDS011;41679;51.440;-2.012;2022-08-04T08:19:06;17.95;;;2.75;;
55760;SDS011;41679;51.440;-2.012;2022-08-04T08:21:32;15.30;;;2.03;;
55760;SDS011;41679;51.440;-2.012;2022-08-04T08:23:57;16.98;;;2.35;;
55760;SDS011;41679;51.440;-2.012;2022-08-04T08:26:23;17.00;;;2.00;;
55760;SDS011;41679;51.440;-2.012;2022-08-04T08:28:49;14.70;;;2.33;;
55760;SDS011;41679;51.440;-2.012;2022-08-04T08:31:14;17.08;;;1.60;;
55760;SDS011;41679;51.440;-2.012;2022-08-04T08:33:40;17.13;;;2.67;;
55760;SDS011;41679;51.440;-2.012;2022-08-04T08:39:09;17.60;;;1.92;;
55760;SDS011;41679;51.440;-2.012;2022-08-04T08:55:17;9.57;;;0.67;;
55760;SDS011;41679;51.440;-2.012;2022-08-04T09:12:17;9.40;;;0.82;;
55760;SDS011;41679;51.440;-2.012;2022-08-04T09:15:06;9.63;;;0.75;;
55760;SDS011;41679;51.440;-2.012;2022-08-04T09:28:25;7.75;;;0.60;;
55760;SDS011;41679;51.440;-2.012;2022-08-04T09:30:58;6.07;;;0.40;;
55760;SDS011;41679;51.440;-2.012;2022-08-04T09:38:42;8.10;;;0.82;;
55760;SDS011;41679;51.440;-2.012;2022-08-04T09:41:58;5.68;;;0.50;;
55760;SDS011;41679;51.440;-2.012;2022-08-04T09:55:51;3.10;;;0.32;;
55760;SDS011;41679;51.440;-2.012;2022-08-04T10:01:20;9.68;;;0.77;;
55760;SDS011;41679;51.440;-2.012;2022-08-04T10:03:50;7.72;;;0.60;;
55760;SDS011;41679;51.440;-2.012;2022-08-04T10:09:27;6.40;;;0.57;;
55760;SDS011;41679;51.440;-2.012;2022-08-04T10:14:36;7.80;;;0.60;;
55760;SDS011;41679;51.440;-2.012;2022-08-04T10:17:29;8.57;;;1.23;;
55760;SDS011;41679;51.440;-2.012;2022-08-04T10:20:41;6.32;;;0.40;;
55760;SDS011;41679;51.440;-2.012;2022-08-04T10:29:13;5.28;;;0.30;;
55760;SDS011;41679;51.440;-2.012;2022-08-04T10:31:47;6.10;;;0.50;;
55760;SDS011;41679;51.440;-2.012;2022-08-04T10:34:23;7.07;;;0.30;;
55760;SDS011;41679;51.440;-2.012;2022-08-04T10:39:52;6.45;;;0.63;;
55760;SDS011;41679;51.440;-2.012;2022-08-04T10:42:44;8.07;;;0.70;;
55760;SDS011;41679;51.440;-2.012;2022-08-04T10:45:18;6.28;;;0.50;;
55760;SDS011;41679;51.440;-2.012;2022-08-04T10:47:53;6.65;;;0.30;;
55760;SDS011;41679;51.440;-2.012;2022-08-04T10:50:24;5.25;;;0.30;;
55760;SDS011;41679;51.440;-2.012;2022-08-04T10:52:58;3.17;;;0.30;;
55760;SDS011;41679;51.440;-2.012;2022-08-04T10:55:40;10.18;;;0.68;;
55760;SDS011;41679;51.440;-2.012;2022-08-04T10:58:13;9.52;;;0.73;;
55760;SDS011;41679;51.440;-2.012;2022-08-04T11:00:44;5.82;;;0.45;;
55760;SDS011;41679;51.440;-2.012;2022-08-04T11:03:20;3.35;;;0.30;;
55760;SDS011;41679;51.440;-2.012;2022-08-04T11:11:06;7.10;;;0.40;;
55760;SDS011;41679;51.440;-2.012;2022-08-04T11:13:46;4.47;;;0.38;;
55760;SDS011;41679;51.440;-2.012;2022-08-04T11:27:28;4.75;;;0.45;;
55760;SDS011;41679;51.440;-2.012;2022-08-04T11:30:16;5.65;;;0.20;;
55760;SDS011;41679;51.440;-2.012;2022-08-04T11:35:56;4.38;;;0.25;;
55760;SDS011;41679;51.440;-2.012;2022-08-04T11:38:32;6.45;;;0.30;;
55760;SDS011;41679;51.440;-2.012;2022-08-04T11:41:08;4.72;;;0.57;;
55760;SDS011;41679;51.440;-2.012;2022-08-04T11:43:44;7.07;;;0.43;;
55760;SDS011;41679;51.440;-2.012;2022-08-04T11:47:02;6.38;;;0.40;;
55760;SDS011;41679;51.440;-2.012;2022-08-04T11:49:33;4.65;;;0.30;;
55760;SDS011;41679;51.440;-2.012;2022-08-04T11:52:05;1.58;;;0.20;;
55760;SDS011;41679;51.440;-2.012;2022-08-04T11:54:34;3.33;;;0.40;;
55760;SDS011;41679;51.440;-2.012;2022-08-04T11:57:02;5.45;;;0.65;;
55760;SDS011;41679;51.440;-2.012;2022-08-04T11:59:29;3.53;;;0.30;;
55760;SDS011;41679;51.440;-2.012;2022-08-04T12:07:19;3.75;;;0.30;;
55760;SDS011;41679;51.440;-2.012;2022-08-04T12:17:42;6.88;;;0.40;;
55760;SDS011;41679;51.440;-2.012;2022-08-04T12:20:15;4.60;;;0.40;;
55760;SDS011;41679;51.440;-2.012;2022-08-04T12:22:46;6.78;;;0.85;;
55760;SDS011;41679;51.440;-2.012;2022-08-04T12:25:25;5.97;;;0.38;;
55760;SDS011;41679;51.440;-2.012;2022-08-04T12:27:58;4.10;;;0.30;;
55760;SDS011;41679;51.440;-2.012;2022-08-04T12:30:32;5.93;;;0.20;;
55760;SDS011;41679;51.440;-2.012;2022-08-04T12:33:04;3.13;;;0.30;;
55760;SDS011;41679;51.440;-2.012;2022-08-04T12:38:11;10.38;;;0.70;;
55760;SDS011;41679;51.440;-2.012;2022-08-04T12:40:50;3.15;;;0.30;;
55760;SDS011;41679;51.440;-2.012;2022-08-04T12:46:32;7.20;;;0.60;;
55760;SDS011;41679;51.440;-2.012;2022-08-04T12:49:00;5.15;;;0.60;;
55760;SDS011;41679;51.440;-2.012;2022-08-04T12:51:26;4.85;;;0.30;;
55760;SDS011;41679;51.440;-2.012;2022-08-04T12:53:53;7.72;;;0.38;;
55760;SDS011;41679;51.440;-2.012;2022-08-04T12:56:24;3.20;;;0.32;;
55760;SDS011;41679;51.440;-2.012;2022-08-04T12:58:52;5.80;;;0.32;;
55760;SDS011;41679;51.440;-2.012;2022-08-04T13:01:24;4.75;;;0.40;;
55760;SDS011;41679;51.440;-2.012;2022-08-04T13:03:52;5.45;;;0.45;;
55760;SDS011;41679;51.440;-2.012;2022-08-04T13:06:28;2.83;;;0.17;;
55760;SDS011;41679;51.440;-2.012;2022-08-04T13:09:06;5.07;;;0.35;;
55760;SDS011;41679;51.440;-2.012;2022-08-04T13:11:41;5.45;;;0.30;;
55760;SDS011;41679;51.440;-2.012;2022-08-04T13:16:44;5.68;;;0.50;;
55760;SDS011;41679;51.440;-2.012;2022-08-04T13:19:10;3.03;;;0.30;;
55760;SDS011;41679;51.440;-2.012;2022-08-04T13:21:40;10.80;;;1.05;;
55760;SDS011;41679;51.440;-2.012;2022-08-04T13:24:11;6.00;;;0.55;;
55760;SDS011;41679;51.440;-2.012;2022-08-04T13:29:33;8.85;;;0.57;;
55760;SDS011;41679;51.440;-2.012;2022-08-04T13:32:03;6.75;;;0.40;;
55760;SDS011;41679;51.440;-2.012;2022-08-04T13:34:32;5.70;;;0.40;;
55760;SDS011;41679;51.440;-2.012;2022-08-04T13:36:59;6.28;;;0.50;;
55760;SDS011;41679;51.440;-2.012;2022-08-04T13:39:26;5.97;;;0.63;;
55760;SDS011;41679;51.440;-2.012;2022-08-04T13:41:54;10.52;;;1.25;;
55760;SDS011;41679;51.440;-2.012;2022-08-04T13:44:29;6.38;;;0.50;;
55760;SDS011;41679;51.440;-2.012;2022-08-04T13:47:00;8.60;;;0.40;;
55760;SDS011;41679;51.440;-2.012;2022-08-04T13:49:30;11.85;;;0.40;;
55760;SDS011;41679;51.440;-2.012;2022-08-04T13:51:57;7.63;;;0.50;;
55760;SDS011;41679;51.440;-2.012;2022-08-04T13:54:25;6.75;;;0.40;;
55760;SDS011;41679;51.440;-2.012;2022-08-04T13:56:59;7.82;;;0.65;;
55760;SDS011;41679;51.440;-2.012;2022-08-04T13:59:33;7.13;;;0.30;;
55760;SDS011;41679;51.440;-2.012;2022-08-04T14:02:03;7.85;;;0.60;;
55760;SDS011;41679;51.440;-2.012;2022-08-04T14:42:13;4.30;;;0.50;;
55760;SDS011;41679;51.440;-2.012;2022-08-04T14:44:56;5.82;;;0.40;;
55760;SDS011;41679;51.440;-2.012;2022-08-04T14:47:37;6.22;;;0.35;;
55760;SDS011;41679;51.440;-2.012;2022-08-04T14:50:05;6.93;;;0.68;;
55760;SDS011;41679;51.440;-2.012;2022-08-04T14:52:31;7.70;;;0.50;;
55760;SDS011;41679;51.440;-2.012;2022-08-04T14:54:57;6.40;;;1.02;;
55760;SDS011;41679;51.440;-2.012;2022-08-04T14:57:23;8.80;;;0.60;;
55760;SDS011;41679;51.440;-2.012;2022-08-04T14:59:49;7.30;;;0.40;;
55760;SDS011;41679;51.440;-2.012;2022-08-04T15:02:15;5.38;;;0.50;;
55760;SDS011;41679;51.440;-2.012;2022-08-04T15:04:42;7.35;;;0.40;;
55760;SDS011;41679;51.440;-2.012;2022-08-04T15:07:09;6.55;;;0.50;;
55760;SDS011;41679;51.440;-2.012;2022-08-04T15:09:35;8.02;;;0.60;;
55760;SDS011;41679;51.440;-2.012;2022-08-04T15:12:01;5.03;;;0.40;;
55760;SDS011;41679;51.440;-2.012;2022-08-04T15:14:28;8.30;;;0.68;;
55760;SDS011;41679;51.440;-2.012;2022-08-04T15:16:54;6.03;;;0.55;;
55760;SDS011;41679;51.440;-2.012;2022-08-04T15:19:19;3.15;;;0.25;;
55760;SDS011;41679;51.440;-2.012;2022-08-04T15:21:46;6.22;;;0.50;;
55760;SDS011;41679;51.440;-2.012;2022-08-04T15:24:12;5.95;;;0.40;;
55760;SDS011;41679;51.440;-2.012;2022-08-04T15:26:39;9.57;;;0.77;;
55760;SDS011;41679;51.440;-2.012;2022-08-04T15:29:12;9.43;;;0.60;;
55760;SDS011;41679;51.440;-2.012;2022-08-04T15:31:42;4.88;;;0.35;;
55760;SDS011;41679;51.440;-2.012;2022-08-04T15:34:09;7.47;;;0.40;;
55760;SDS011;41679;51.440;-2.012;2022-08-04T15:36:56;6.82;;;0.40;;
55760;SDS011;41679;51.440;-2.012;2022-08-04T15:39:34;5.03;;;0.55;;
55760;SDS011;41679;51.440;-2.012;2022-08-04T15:42:12;7.38;;;0.50;;
55760;SDS011;41679;51.440;-2.012;2022-08-04T15:47:16;5.15;;;0.30;;
55760;SDS011;41679;51.440;-2.012;2022-08-04T15:49:42;5.43;;;0.30;;
55760;SDS011;41679;51.440;-2.012;2022-08-04T15:52:10;5.20;;;0.30;;
55760;SDS011;41679;51.440;-2.012;2022-08-04T15:54:37;3.78;;;0.43;;
55760;SDS011;41679;51.440;-2.012;2022-08-04T15:57:03;6.40;;;0.40;;
55760;SDS011;41679;51.440;-2.012;2022-08-04T16:02:41;1.83;;;0.20;;
55760;SDS011;41679;51.440;-2.012;2022-08-04T16:07:58;7.68;;;0.38;;
55760;SDS011;41679;51.440;-2.012;2022-08-04T16:12:54;7.13;;;0.40;;
55760;SDS011;41679;51.440;-2.012;2022-08-04T16:15:43;6.57;;;0.47;;
55760;SDS011;41679;51.440;-2.012;2022-08-04T16:18:18;4.07;;;0.20;;
55760;SDS011;41679;51.440;-2.012;2022-08-04T16:20:53;2.80;;;0.22;;
55760;SDS011;41679;51.440;-2.012;2022-08-04T16:26:07;3.90;;;0.25;;
55760;SDS011;41679;51.440;-2.012;2022-08-04T16:28:39;4.70;;;0.30;;
55760;SDS011;41679;51.440;-2.012;2022-08-04T16:31:06;3.72;;;0.35;;
55760;SDS011;41679;51.440;-2.012;2022-08-04T16:33:33;5.15;;;0.35;;
55760;SDS011;41679;51.440;-2.012;2022-08-04T16:36:01;6.28;;;0.30;;
55760;SDS011;41679;51.440;-2.012;2022-08-04T16:38:27;3.72;;;0.30;;
55760;SDS011;41679;51.440;-2.012;2022-08-04T16:40:56;4.75;;;0.28;;
55760;SDS011;41679;51.440;-2.012;2022-08-04T16:43:27;3.38;;;0.30;;
55760;SDS011;41679;51.440;-2.012;2022-08-04T16:46:02;5.05;;;0.40;;
55760;SDS011;41679;51.440;-2.012;2022-08-04T16:48:30;7.10;;;0.25;;
55760;SDS011;41679;51.440;-2.012;2022-08-04T16:51:01;2.88;;;0.17;;
55760;SDS011;41679;51.440;-2.012;2022-08-04T16:53:31;1.10;;;0.22;;
55760;SDS011;41679;51.440;-2.012;2022-08-04T16:55:59;6.15;;;0.40;;
55760;SDS011;41679;51.440;-2.012;2022-08-04T16:58:27;4.63;;;0.38;;
55760;SDS011;41679;51.440;-2.012;2022-08-04T17:00:56;2.85;;;0.20;;
55760;SDS011;41679;51.440;-2.012;2022-08-04T17:03:26;2.30;;;0.25;;
55760;SDS011;41679;51.440;-2.012;2022-08-04T17:06:03;4.38;;;0.30;;
55760;SDS011;41679;51.440;-2.012;2022-08-04T17:08:42;3.00;;;0.25;;
55760;SDS011;41679;51.440;-2.012;2022-08-04T17:11:11;2.45;;;0.22;;
55760;SDS011;41679;51.440;-2.012;2022-08-04T17:13:41;4.95;;;0.40;;
55760;SDS011;41679;51.440;-2.012;2022-08-04T17:16:09;5.30;;;0.20;;
55760;SDS011;41679;51.440;-2.012;2022-08-04T17:18:38;6.07;;;0.22;;
55760;SDS011;41679;51.440;-2.012;2022-08-04T17:21:10;5.07;;;0.20;;
55760;SDS011;41679;51.440;-2.012;2022-08-04T17:23:38;5.57;;;0.50;;
55760;SDS011;41679;51.440;-2.012;2022-08-04T17:26:10;10.73;;;0.50;;
55760;SDS011;41679;51.440;-2.012;2022-08-04T17:28:37;8.05;;;0.90;;
55760;SDS011;41679;51.440;-2.012;2022-08-04T17:31:06;7.03;;;0.40;;
55760;SDS011;41679;51.440;-2.012;2022-08-04T17:33:34;2.67;;;0.20;;
55760;SDS011;41679;51.440;-2.012;2022-08-04T17:36:00;4.07;;;0.30;;
55760;SDS011;41679;51.440;-2.012;2022-08-04T17:40:58;5.68;;;0.52;;
55760;SDS011;41679;51.440;-2.012;2022-08-04T17:43:36;3.90;;;0.30;;
55760;SDS011;41679;51.440;-2.012;2022-08-04T17:51:51;21.70;;;6.10;;
55760;SDS011;41679;51.440;-2.012;2022-08-04T17:54:17;10.68;;;1.40;;
55760;SDS011;41679;51.440;-2.012;2022-08-04T17:56:48;12.23;;;1.60;;
55760;SDS011;41679;51.440;-2.012;2022-08-04T17:59:18;13.45;;;1.65;;
55760;SDS011;41679;51.440;-2.012;2022-08-04T18:04:50;9.73;;;0.82;;
55760;SDS011;41679;51.440;-2.012;2022-08-04T18:07:21;1.95;;;0.20;;
55760;SDS011;41679;51.440;-2.012;2022-08-04T18:10:07;4.95;;;0.40;;
55760;SDS011;41679;51.440;-2.012;2022-08-04T18:12:33;4.40;;;0.50;;
55760;SDS011;41679;51.440;-2.012;2022-08-04T18:15:02;2.67;;;0.30;;
55760;SDS011;41679;51.440;-2.012;2022-08-04T18:17:32;4.70;;;0.60;;
55760;SDS011;41679;51.440;-2.012;2022-08-04T18:19:58;13.75;;;2.47;;
55760;SDS011;41679;51.440;-2.012;2022-08-04T18:22:24;14.32;;;2.10;;
55760;SDS011;41679;51.440;-2.012;2022-08-04T18:24:50;4.32;;;0.52;;
55760;SDS011;41679;51.440;-2.012;2022-08-04T18:27:16;4.65;;;0.38;;
55760;SDS011;41679;51.440;-2.012;2022-08-04T18:29:45;5.28;;;0.40;;
55760;SDS011;41679;51.440;-2.012;2022-08-04T18:32:10;2.05;;;0.30;;
55760;SDS011;41679;51.440;-2.012;2022-08-04T18:34:38;5.90;;;0.60;;
55760;SDS011;41679;51.440;-2.012;2022-08-04T18:37:03;3.33;;;0.20;;
55760;SDS011;41679;51.440;-2.012;2022-08-04T18:39:29;3.35;;;0.50;;
55760;SDS011;41679;51.440;-2.012;2022-08-04T18:41:55;2.13;;;0.10;;
55760;SDS011;41679;51.440;-2.012;2022-08-04T18:47:28;3.30;;;0.20;;
55760;SDS011;41679;51.440;-2.012;2022-08-04T18:49:54;4.18;;;0.50;;
55760;SDS011;41679;51.440;-2.012;2022-08-04T18:52:20;3.92;;;0.30;;
55760;SDS011;41679;51.440;-2.012;2022-08-04T18:54:46;4.47;;;0.40;;
55760;SDS011;41679;51.440;-2.012;2022-08-04T18:57:13;2.53;;;0.20;;
55760;SDS011;41679;51.440;-2.012;2022-08-04T18:59:44;5.65;;;0.38;;
55760;SDS011;41679;51.440;-2.012;2022-08-04T19:02:09;3.83;;;0.20;;
55760;SDS011;41679;51.440;-2.012;2022-08-04T19:04:34;3.38;;;0.32;;
55760;SDS011;41679;51.440;-2.012;2022-08-04T19:07:00;3.30;;;0.20;;
55760;SDS011;41679;51.440;-2.012;2022-08-04T19:09:25;3.78;;;0.30;;
55760;SDS011;41679;51.440;-2.012;2022-08-04T19:11:51;5.30;;;0.50;;
55760;SDS011;41679;51.440;-2.012;2022-08-04T19:14:17;5.13;;;0.65;;
55760;SDS011;41679;51.440;-2.012;2022-08-04T19:16:43;2.42;;;0.20;;
55760;SDS011;41679;51.440;-2.012;2022-08-04T19:19:09;4.55;;;0.40;;
55760;SDS011;41679;51.440;-2.012;2022-08-04T19:21:34;4.47;;;0.68;;
55760;SDS011;41679;51.440;-2.012;2022-08-04T19:24:00;5.32;;;0.30;;
55760;SDS011;41679;51.440;-2.012;2022-08-04T19:26:26;3.90;;;0.28;;
55760;SDS011;41679;51.440;-2.012;2022-08-04T19:28:51;3.20;;;0.32;;
55760;SDS011;41679;51.440;-2.012;2022-08-04T19:31:17;4.22;;;0.22;;
55760;SDS011;41679;51.440;-2.012;2022-08-04T19:33:43;6.72;;;0.30;;
55760;SDS011;41679;51.440;-2.012;2022-08-04T19:36:09;1.05;;;0.15;;
55760;SDS011;41679;51.440;-2.012;2022-08-04T19:38:35;4.38;;;0.20;;
55760;SDS011;41679;51.440;-2.012;2022-08-04T19:41:02;3.75;;;0.30;;
55760;SDS011;41679;51.440;-2.012;2022-08-04T19:43:29;2.83;;;0.28;;
55760;SDS011;41679;51.440;-2.012;2022-08-04T19:45:55;3.40;;;0.40;;
55760;SDS011;41679;51.440;-2.012;2022-08-04T19:48:21;4.50;;;0.30;;
55760;SDS011;41679;51.440;-2.012;2022-08-04T19:50:46;3.65;;;0.40;;
55760;SDS011;41679;51.440;-2.012;2022-08-04T19:53:12;5.50;;;0.38;;
55760;SDS011;41679;51.440;-2.012;2022-08-04T19:55:39;4.53;;;0.50;;
55760;SDS011;41679;51.440;-2.012;2022-08-04T19:58:05;4.75;;;0.40;;
55760;SDS011;41679;51.440;-2.012;2022-08-04T20:00:32;7.80;;;0.68;;
55760;SDS011;41679;51.440;-2.012;2022-08-04T20:02:57;4.95;;;0.45;;
55760;SDS011;41679;51.440;-2.012;2022-08-04T20:05:23;5.55;;;0.40;;
55760;SDS011;41679;51.440;-2.012;2022-08-04T20:07:49;5.72;;;0.40;;
55760;SDS011;41679;51.440;-2.012;2022-08-04T20:10:14;7.13;;;0.80;;